createdAt,value
2019-06-01T00:00:11.835Z,32.27
2019-06-01T00:01:15.215Z,32.28
2019-06-01T00:02:18.401Z,32.31
2019-06-01T00:03:19.799Z,32.20
2019-06-01T00:04:21.331Z,32.21
2019-06-01T00:05:22.725Z,32.23
2019-06-01T00:06:24.225Z,32.19
2019-06-01T00:07:25.610Z,32.23
2019-06-01T00:08:26.991Z,32.34
2019-06-01T00:09:28.629Z,32.28
2019-06-01T00:10:29.896Z,32.27
2019-06-01T00:11:31.277Z,32.33
2019-06-01T00:12:34.477Z,32.36
2019-06-01T00:13:35.870Z,32.47
2019-06-01T00:14:37.284Z,32.43
2019-06-01T00:15:39.872Z,32.30
2019-06-01T00:16:42.037Z,32.35
2019-06-01T00:17:43.881Z,32.40
2019-06-01T00:18:46.032Z,32.41
2019-06-01T00:19:48.231Z,32.41
2019-06-01T00:20:50.725Z,32.41
2019-06-01T00:21:54.314Z,32.33
2019-06-01T00:22:55.820Z,32.28
2019-06-01T00:23:57.424Z,32.32
2019-06-01T00:24:58.993Z,32.53
2019-06-01T00:26:00.480Z,32.51
2019-06-01T00:27:01.877Z,32.49
2019-06-01T00:28:03.268Z,32.51
2019-06-01T00:29:04.853Z,32.54
2019-06-01T00:30:06.565Z,32.33
2019-06-01T00:31:08.032Z,32.32
2019-06-01T00:32:09.438Z,32.40
2019-06-01T00:33:11.729Z,32.51
2019-06-01T00:34:13.114Z,32.59
2019-06-01T00:35:14.529Z,32.47
2019-06-01T00:36:16.401Z,32.44
2019-06-01T00:37:17.793Z,32.42
2019-06-01T00:38:19.184Z,32.45
2019-06-01T00:39:20.560Z,32.48
2019-06-01T00:40:22.326Z,32.54
2019-06-01T00:41:23.694Z,32.48
2019-06-01T00:42:26.066Z,32.32
2019-06-01T00:43:27.453Z,32.47
2019-06-01T00:44:28.828Z,32.45
2019-06-01T00:45:30.421Z,32.47
2019-06-01T00:46:31.807Z,32.41
2019-06-01T00:47:33.199Z,32.54
2019-06-01T00:48:34.593Z,32.57
2019-06-01T00:49:35.989Z,32.57
2019-06-01T00:50:37.526Z,32.54
2019-06-01T00:51:39.000Z,32.44
2019-06-01T00:52:40.397Z,32.50
2019-06-01T00:53:43.209Z,32.55
2019-06-01T00:54:45.284Z,32.48
2019-06-01T00:55:47.387Z,32.41
2019-06-01T00:56:49.694Z,32.48
2019-06-01T00:57:51.880Z,32.57
2019-06-01T00:58:53.935Z,32.60
2019-06-01T00:59:55.490Z,32.48
2019-06-01T01:00:56.918Z,32.57
2019-06-01T01:01:58.302Z,32.58
2019-06-01T01:02:59.803Z,32.56
2019-06-01T01:04:01.177Z,32.51
2019-06-01T01:05:09.246Z,32.57
2019-06-01T01:06:10.660Z,32.52
2019-06-01T01:07:12.051Z,32.61
2019-06-01T01:08:13.551Z,32.58
2019-06-01T01:09:14.939Z,32.57
2019-06-01T01:10:16.413Z,32.72
2019-06-01T01:11:18.009Z,32.65
2019-06-01T01:12:19.389Z,32.66
2019-06-01T01:13:22.692Z,32.64
2019-06-01T01:14:24.060Z,32.62
2019-06-01T01:15:25.839Z,32.61
2019-06-01T01:16:27.370Z,32.56
2019-06-01T01:17:28.765Z,32.71
2019-06-01T01:18:30.356Z,32.68
2019-06-01T01:19:31.736Z,32.56
2019-06-01T01:20:34.033Z,32.61
2019-06-01T01:21:35.461Z,32.59
2019-06-01T01:22:36.847Z,32.64
2019-06-01T01:23:38.362Z,32.70
2019-06-01T01:24:39.736Z,32.74
2019-06-01T01:25:41.149Z,32.65
2019-06-01T01:26:42.796Z,32.59
2019-06-01T01:27:44.201Z,32.55
2019-06-01T01:28:46.702Z,32.42
2019-06-01T01:29:48.959Z,32.48
2019-06-01T01:31:02.741Z,32.65
2019-06-01T01:31:53.811Z,32.61
2019-06-01T01:32:58.182Z,32.54
2019-06-01T01:33:59.491Z,32.54
2019-06-01T01:35:00.897Z,32.53
2019-06-01T01:36:02.443Z,32.61
2019-06-01T01:37:04.172Z,32.52
2019-06-01T01:38:05.589Z,32.54
2019-06-01T01:39:06.992Z,32.42
2019-06-01T01:40:09.014Z,32.34
2019-06-01T01:41:10.415Z,32.47
2019-06-01T01:42:12.001Z,32.57
2019-06-01T01:43:13.381Z,32.55
2019-06-01T01:44:14.780Z,32.43
2019-06-01T01:45:16.259Z,32.49
2019-06-01T01:46:17.773Z,32.50
2019-06-01T01:47:19.286Z,32.60
2019-06-01T01:48:20.673Z,32.56
2019-06-01T01:49:25.928Z,32.56
2019-06-01T01:50:27.420Z,32.59
2019-06-01T01:51:28.904Z,32.58
2019-06-01T01:52:30.494Z,32.63
2019-06-01T01:53:31.873Z,32.71
2019-06-01T01:54:33.282Z,32.74
2019-06-01T01:55:34.654Z,32.64
2019-06-01T01:56:36.208Z,32.69
2019-06-01T01:57:37.593Z,32.73
2019-06-01T01:58:40.191Z,32.71
2019-06-01T01:59:41.586Z,32.74
2019-06-01T02:00:45.977Z,32.86
2019-06-01T02:01:47.370Z,32.83
2019-06-01T02:02:48.797Z,32.79
2019-06-01T02:03:51.348Z,32.92
2019-06-01T02:04:53.701Z,32.72
2019-06-01T02:05:55.162Z,32.77
2019-06-01T02:06:56.562Z,32.75
2019-06-01T02:07:59.885Z,32.71
2019-06-01T02:09:01.828Z,32.81
2019-06-01T02:10:06.668Z,32.76
2019-06-01T02:11:08.057Z,32.67
2019-06-01T02:12:09.443Z,32.73
2019-06-01T02:13:10.890Z,32.77
2019-06-01T02:14:12.269Z,32.79
2019-06-01T02:15:13.644Z,32.88
2019-06-01T02:16:15.138Z,32.80
2019-06-01T02:17:16.615Z,32.71
2019-06-01T02:18:18.028Z,32.90
2019-06-01T02:19:19.413Z,32.96
2019-06-01T02:20:20.804Z,32.79
2019-06-01T02:21:22.219Z,32.86
2019-06-01T02:22:23.586Z,33.03
2019-06-01T02:23:25.015Z,32.96
2019-06-01T02:24:26.404Z,32.83
2019-06-01T02:25:27.838Z,32.79
2019-06-01T02:26:29.256Z,32.83
2019-06-01T02:27:30.667Z,32.80
2019-06-01T02:28:32.289Z,32.83
2019-06-01T02:29:33.668Z,32.81
2019-06-01T02:30:35.213Z,32.78
2019-06-01T02:31:42.533Z,32.80
2019-06-01T02:32:39.905Z,32.77
2019-06-01T02:33:41.552Z,32.77
2019-06-01T02:34:42.961Z,32.86
2019-06-01T02:35:44.374Z,32.88
2019-06-01T02:36:45.782Z,33.00
2019-06-01T02:37:47.193Z,33.00
2019-06-01T02:38:48.756Z,33.04
2019-06-01T02:39:50.232Z,32.92
2019-06-01T02:40:51.647Z,32.95
2019-06-01T02:41:54.795Z,33.00
2019-06-01T02:42:57.181Z,32.94
2019-06-01T02:43:59.223Z,32.94
2019-06-01T02:45:01.369Z,32.94
2019-06-01T02:46:06.731Z,32.95
2019-06-01T02:47:07.577Z,32.84
2019-06-01T02:48:09.087Z,32.83
2019-06-01T02:49:10.636Z,32.82
2019-06-01T02:50:12.203Z,32.91
2019-06-01T02:51:13.606Z,32.79
2019-06-01T02:52:14.976Z,32.82
2019-06-01T02:53:16.377Z,32.77
2019-06-01T02:54:17.795Z,32.75
2019-06-01T02:55:19.309Z,32.73
2019-06-01T02:56:20.717Z,32.84
2019-06-01T02:57:22.140Z,32.88
2019-06-01T02:58:23.549Z,32.78
2019-06-01T02:59:25.082Z,32.68
2019-06-01T03:00:48.558Z,32.76
2019-06-01T03:01:57.066Z,32.88
2019-06-01T03:02:53.595Z,32.82
2019-06-01T03:03:54.993Z,32.76
2019-06-01T03:04:57.051Z,32.74
2019-06-01T03:06:01.371Z,32.71
2019-06-01T03:07:03.795Z,32.86
2019-06-01T03:08:07.619Z,32.89
2019-06-01T03:09:09.433Z,32.77
2019-06-01T03:10:11.296Z,32.75
2019-06-01T03:11:14.135Z,32.78
2019-06-01T03:12:18.049Z,32.73
2019-06-01T03:13:21.340Z,32.92
2019-06-01T03:14:27.040Z,32.82
2019-06-01T03:15:31.264Z,32.76
2019-06-01T03:16:39.922Z,32.75
2019-06-01T03:17:43.383Z,32.74
2019-06-01T03:18:46.624Z,32.70
2019-06-01T03:19:50.741Z,32.69
2019-06-01T03:20:55.709Z,32.65
2019-06-01T03:22:03.105Z,32.70
2019-06-01T03:23:05.803Z,32.63
2019-06-01T03:24:13.030Z,32.69
2019-06-01T03:25:14.497Z,32.59
2019-06-01T03:26:16.652Z,32.50
2019-06-01T03:27:21.057Z,32.52
2019-06-01T03:28:25.568Z,32.41
2019-06-01T03:29:29.785Z,32.40
2019-06-01T03:30:44.779Z,32.37
2019-06-01T03:31:43.638Z,32.39
2019-06-01T03:32:46.188Z,32.37
2019-06-01T03:33:47.553Z,32.62
2019-06-01T03:34:48.932Z,32.64
2019-06-01T03:35:50.330Z,32.66
2019-06-01T03:36:51.923Z,32.59
2019-06-01T03:37:53.415Z,32.70
2019-06-01T03:38:54.809Z,32.72
2019-06-01T03:39:56.192Z,32.69
2019-06-01T03:40:57.685Z,32.63
2019-06-01T03:42:00.979Z,32.61
2019-06-01T03:43:04.297Z,32.74
2019-06-01T03:44:06.559Z,32.69
2019-06-01T03:45:08.169Z,32.67
2019-06-01T03:46:09.558Z,32.63
2019-06-01T03:47:11.864Z,32.59
2019-06-01T03:48:13.640Z,32.59
2019-06-01T03:49:15.041Z,32.48
2019-06-01T03:50:16.421Z,32.55
2019-06-01T03:51:17.843Z,32.57
2019-06-01T03:52:19.362Z,32.56
2019-06-01T03:53:20.748Z,32.58
2019-06-01T03:54:22.133Z,32.58
2019-06-01T03:55:23.519Z,32.71
2019-06-01T03:56:25.007Z,32.71
2019-06-01T03:57:26.594Z,32.67
2019-06-01T03:58:27.972Z,32.66
2019-06-01T03:59:29.487Z,32.76
2019-06-01T04:00:30.996Z,32.78
2019-06-01T04:01:32.423Z,32.81
2019-06-01T04:02:33.997Z,32.75
2019-06-01T04:03:35.444Z,32.92
2019-06-01T04:04:36.941Z,32.91
2019-06-01T04:05:38.328Z,32.95
2019-06-01T04:06:39.826Z,32.95
2019-06-01T04:07:41.253Z,32.93
2019-06-01T04:08:42.632Z,32.90
2019-06-01T04:09:44.032Z,32.97
2019-06-01T04:10:45.414Z,32.91
2019-06-01T04:11:46.820Z,33.01
2019-06-01T04:12:48.425Z,32.92
2019-06-01T04:13:49.841Z,32.94
2019-06-01T04:14:51.235Z,32.98
2019-06-01T04:15:53.824Z,32.95
2019-06-01T04:16:55.372Z,32.94
2019-06-01T04:17:56.946Z,32.98
2019-06-01T04:18:58.368Z,32.87
2019-06-01T04:19:59.720Z,32.88
2019-06-01T04:21:02.418Z,32.95
2019-06-01T04:22:08.122Z,32.95
2019-06-01T04:23:10.235Z,32.91
2019-06-01T04:24:12.336Z,32.91
2019-06-01T04:25:13.924Z,32.91
2019-06-01T04:26:16.527Z,32.94
2019-06-01T04:27:19.020Z,32.90
2019-06-01T04:28:20.779Z,32.92
2019-06-01T04:29:22.198Z,32.99
2019-06-01T04:30:25.406Z,33.05
2019-06-01T04:31:26.917Z,32.95
2019-06-01T04:32:28.436Z,32.99
2019-06-01T04:33:29.967Z,32.87
2019-06-01T04:34:31.522Z,32.81
2019-06-01T04:35:33.008Z,32.79
2019-06-01T04:36:34.398Z,32.94
2019-06-01T04:37:35.910Z,32.88
2019-06-01T04:38:37.538Z,32.83
2019-06-01T04:39:38.919Z,32.85
2019-06-01T04:40:40.328Z,32.80
2019-06-01T04:41:41.810Z,32.80
2019-06-01T04:42:43.313Z,32.73
2019-06-01T04:43:46.106Z,32.82
2019-06-01T04:44:47.506Z,32.79
2019-06-01T04:45:48.892Z,32.76
2019-06-01T04:46:50.277Z,32.67
2019-06-01T04:47:51.681Z,32.60
2019-06-01T04:48:53.276Z,32.58
2019-06-01T04:49:54.657Z,32.59
2019-06-01T04:50:56.056Z,32.55
2019-06-01T04:51:57.542Z,32.51
2019-06-01T04:52:59.072Z,32.54
2019-06-01T04:54:00.698Z,32.63
2019-06-01T04:55:05.089Z,32.60
2019-06-01T04:56:07.002Z,32.56
2019-06-01T04:57:08.910Z,32.55
2019-06-01T04:58:11.076Z,32.40
2019-06-01T04:59:13.059Z,32.47
2019-06-01T05:00:26.039Z,32.49
2019-06-01T05:01:19.218Z,32.60
2019-06-01T05:02:20.629Z,32.53
2019-06-01T05:03:22.147Z,32.51
2019-06-01T05:04:23.700Z,32.45
2019-06-01T05:05:25.156Z,32.47
2019-06-01T05:06:26.600Z,32.60
2019-06-01T05:07:27.988Z,32.61
2019-06-01T05:08:29.480Z,32.62
2019-06-01T05:09:30.913Z,32.55
2019-06-01T05:10:32.401Z,32.60
2019-06-01T05:11:33.889Z,32.56
2019-06-01T05:12:36.370Z,32.67
2019-06-01T05:13:37.889Z,32.64
2019-06-01T05:14:39.281Z,32.66
2019-06-01T05:15:40.674Z,32.64
2019-06-01T05:16:42.171Z,32.66
2019-06-01T05:17:43.563Z,32.73
2019-06-01T05:18:44.948Z,32.71
2019-06-01T05:19:46.622Z,32.71
2019-06-01T05:20:48.106Z,32.61
2019-06-01T05:21:49.605Z,32.65
2019-06-01T05:22:50.983Z,32.59
2019-06-01T05:23:52.497Z,32.51
2019-06-01T05:24:54.126Z,32.56
2019-06-01T05:25:55.513Z,32.66
2019-06-01T05:26:56.905Z,32.69
2019-06-01T05:27:58.331Z,32.67
2019-06-01T05:28:59.855Z,32.60
2019-06-01T05:30:01.257Z,32.66
2019-06-01T05:31:03.034Z,32.57
2019-06-01T05:32:04.431Z,32.61
2019-06-01T05:33:21.379Z,32.61
2019-06-01T05:34:10.127Z,32.62
2019-06-01T05:35:11.869Z,32.56
2019-06-01T05:36:14.285Z,32.67
2019-06-01T05:37:16.655Z,32.62
2019-06-01T05:38:18.584Z,32.61
2019-06-01T05:39:20.150Z,32.64
2019-06-01T05:40:21.553Z,32.63
2019-06-01T05:41:22.935Z,32.64
2019-06-01T05:42:24.440Z,32.55
2019-06-01T05:43:25.831Z,32.52
2019-06-01T05:44:27.329Z,32.50
2019-06-01T05:45:28.814Z,32.54
2019-06-01T05:46:30.221Z,32.51
2019-06-01T05:47:31.742Z,32.50
2019-06-01T05:48:33.155Z,32.44
2019-06-01T05:49:34.592Z,32.44
2019-06-01T05:50:36.124Z,32.41
2019-06-01T05:51:37.491Z,32.37
2019-06-01T05:52:38.897Z,32.38
2019-06-01T05:53:40.384Z,32.32
2019-06-01T05:54:41.789Z,32.38
2019-06-01T05:55:43.406Z,32.46
2019-06-01T05:56:44.922Z,32.46
2019-06-01T05:57:46.529Z,32.47
2019-06-01T05:58:47.948Z,32.49
2019-06-01T05:59:49.363Z,32.45
2019-06-01T06:00:50.798Z,32.35
2019-06-01T06:01:52.287Z,32.33
2019-06-01T06:02:53.777Z,32.45
2019-06-01T06:03:55.165Z,32.40
2019-06-01T06:04:56.553Z,32.33
2019-06-01T06:05:58.247Z,32.24
2019-06-01T06:06:59.721Z,32.15
2019-06-01T06:08:01.100Z,32.10
2019-06-01T06:09:05.785Z,32.06
2019-06-01T06:10:07.481Z,32.07
2019-06-01T06:11:08.997Z,32.19
2019-06-01T06:12:11.241Z,32.16
2019-06-01T06:13:13.347Z,32.24
2019-06-01T06:14:15.488Z,32.17
2019-06-01T06:15:17.625Z,32.17
2019-06-01T06:16:20.721Z,32.15
2019-06-01T06:17:24.297Z,32.07
2019-06-01T06:18:25.893Z,32.03
2019-06-01T06:19:27.443Z,32.06
2019-06-01T06:20:28.829Z,32.06
2019-06-01T06:21:30.407Z,32.09
2019-06-01T06:22:31.792Z,31.95
2019-06-01T06:23:33.300Z,31.78
2019-06-01T06:24:34.753Z,31.78
2019-06-01T06:25:38.384Z,31.69
2019-06-01T06:26:39.595Z,31.60
2019-06-01T06:27:40.979Z,31.52
2019-06-01T06:28:42.373Z,31.47
2019-06-01T06:29:43.761Z,31.24
2019-06-01T06:30:45.149Z,31.25
2019-06-01T06:31:46.757Z,31.16
2019-06-01T06:32:48.242Z,31.00
2019-06-01T06:33:56.689Z,30.89
2019-06-01T06:34:53.049Z,30.78
2019-06-01T06:35:56.249Z,30.70
2019-06-01T06:36:57.668Z,30.69
2019-06-01T06:37:59.129Z,30.72
2019-06-01T06:39:00.533Z,30.60
2019-06-01T06:40:04.219Z,30.52
2019-06-01T06:41:05.608Z,30.44
2019-06-01T06:42:07.043Z,30.36
2019-06-01T06:43:19.115Z,30.25
2019-06-01T06:44:12.988Z,30.21
2019-06-01T06:45:14.647Z,30.13
2019-06-01T06:46:16.593Z,30.07
2019-06-01T06:47:18.806Z,29.93
2019-06-01T06:48:21.282Z,29.92
2019-06-01T06:49:23.299Z,29.91
2019-06-01T06:50:27.902Z,29.86
2019-06-01T06:51:29.288Z,29.74
2019-06-01T06:52:30.914Z,29.74
2019-06-01T06:53:35.257Z,29.68
2019-06-01T06:54:36.608Z,29.73
2019-06-01T06:55:38.086Z,29.72
2019-06-01T06:56:39.584Z,29.77
2019-06-01T06:57:41.113Z,29.70
2019-06-01T06:58:42.499Z,29.63
2019-06-01T06:59:44.906Z,29.67
2019-06-01T07:00:46.278Z,29.73
2019-06-01T07:01:47.782Z,29.57
2019-06-01T07:02:49.347Z,29.50
2019-06-01T07:03:50.724Z,29.59
2019-06-01T07:04:52.129Z,29.60
2019-06-01T07:05:53.618Z,29.56
2019-06-01T07:06:55.026Z,29.49
2019-06-01T07:07:56.432Z,29.49
2019-06-01T07:08:57.873Z,29.45
2019-06-01T07:09:59.385Z,29.38
2019-06-01T07:11:00.762Z,29.46
2019-06-01T07:12:02.170Z,29.42
2019-06-01T07:13:04.762Z,29.41
2019-06-01T07:14:06.258Z,29.38
2019-06-01T07:15:07.843Z,29.34
2019-06-01T07:16:09.226Z,29.26
2019-06-01T07:17:10.639Z,29.26
2019-06-01T07:18:12.194Z,29.29
2019-06-01T07:19:13.592Z,29.31
2019-06-01T07:20:15.369Z,29.31
2019-06-01T07:21:17.328Z,29.34
2019-06-01T07:22:19.732Z,29.26
2019-06-01T07:23:22.068Z,29.30
2019-06-01T07:24:23.906Z,29.25
2019-06-01T07:25:26.779Z,29.26
2019-06-01T07:26:28.277Z,29.19
2019-06-01T07:27:29.777Z,29.05
2019-06-01T07:28:32.377Z,29.09
2019-06-01T07:29:34.034Z,29.08
2019-06-01T07:30:49.572Z,29.05
2019-06-01T07:31:39.742Z,29.03
2019-06-01T07:32:41.162Z,29.01
2019-06-01T07:33:42.804Z,28.99
2019-06-01T07:34:44.185Z,29.01
2019-06-01T07:35:45.685Z,29.00
2019-06-01T07:36:47.084Z,28.98
2019-06-01T07:37:48.484Z,28.92
2019-06-01T07:38:50.109Z,28.91
2019-06-01T07:39:51.588Z,28.93
2019-06-01T07:40:53.004Z,28.93
2019-06-01T07:41:54.672Z,28.96
2019-06-01T07:42:56.074Z,28.93
2019-06-01T07:43:57.741Z,28.97
2019-06-01T07:44:59.184Z,28.94
2019-06-01T07:46:00.585Z,28.84
2019-06-01T07:47:02.088Z,28.80
2019-06-01T07:48:04.595Z,28.73
2019-06-01T07:49:06.258Z,28.76
2019-06-01T07:50:07.875Z,28.84
2019-06-01T07:51:09.288Z,28.78
2019-06-01T07:52:13.222Z,28.79
2019-06-01T07:53:14.008Z,28.81
2019-06-01T07:54:16.083Z,28.81
2019-06-01T07:55:17.632Z,28.77
2019-06-01T07:56:20.326Z,28.73
2019-06-01T07:57:21.820Z,28.71
2019-06-01T07:58:24.534Z,28.60
2019-06-01T07:59:26.389Z,28.62
2019-06-01T08:00:29.027Z,28.60
2019-06-01T08:01:31.547Z,28.60
2019-06-01T08:02:33.869Z,28.57
2019-06-01T08:03:35.283Z,28.60
2019-06-01T08:04:52.438Z,28.54
2019-06-01T08:05:40.970Z,28.48
2019-06-01T08:06:46.181Z,28.48
2019-06-01T08:07:45.676Z,28.41
2019-06-01T08:08:47.090Z,28.41
2019-06-01T08:09:48.698Z,28.35
2019-06-01T08:10:50.273Z,28.40
2019-06-01T08:11:51.690Z,28.32
2019-06-01T08:12:53.200Z,28.32
2019-06-01T08:13:54.608Z,28.44
2019-06-01T08:14:56.044Z,28.32
2019-06-01T08:15:57.427Z,28.36
2019-06-01T08:16:58.823Z,28.42
2019-06-01T08:18:00.215Z,28.31
2019-06-01T08:19:01.604Z,28.26
2019-06-01T08:20:05.051Z,28.28
2019-06-01T08:21:06.461Z,28.28
2019-06-01T08:22:07.928Z,28.21
2019-06-01T08:23:09.293Z,28.28
2019-06-01T08:24:10.844Z,28.26
2019-06-01T08:25:12.572Z,28.18
2019-06-01T08:26:14.081Z,28.19
2019-06-01T08:27:15.475Z,28.17
2019-06-01T08:28:16.854Z,28.32
2019-06-01T08:29:18.264Z,28.23
2019-06-01T08:30:19.690Z,28.21
2019-06-01T08:31:22.429Z,28.30
2019-06-01T08:32:24.544Z,28.26
2019-06-01T08:33:29.561Z,28.29
2019-06-01T08:34:29.473Z,28.33
2019-06-01T08:35:31.246Z,28.33
2019-06-01T08:36:33.876Z,28.38
2019-06-01T08:37:35.599Z,28.38
2019-06-01T08:38:37.130Z,28.32
2019-06-01T08:39:38.546Z,28.34
2019-06-01T08:40:39.986Z,28.34
2019-06-01T08:41:41.443Z,28.29
2019-06-01T08:42:42.835Z,28.25
2019-06-01T08:43:44.222Z,28.30
2019-06-01T08:44:45.619Z,28.34
2019-06-01T08:45:47.122Z,28.36
2019-06-01T08:46:48.611Z,28.39
2019-06-01T08:47:50.016Z,28.39
2019-06-01T08:48:52.401Z,28.45
2019-06-01T08:49:53.809Z,28.38
2019-06-01T08:50:55.195Z,28.42
2019-06-01T08:51:56.644Z,28.43
2019-06-01T08:52:58.096Z,28.54
2019-06-01T08:53:59.586Z,28.60
2019-06-01T08:55:00.977Z,28.50
2019-06-01T08:56:02.551Z,28.54
2019-06-01T08:57:04.096Z,28.54
2019-06-01T08:58:05.508Z,28.59
2019-06-01T08:59:06.893Z,28.55
2019-06-01T09:00:10.497Z,28.53
2019-06-01T09:01:12.017Z,28.48
2019-06-01T09:02:13.412Z,28.42
2019-06-01T09:03:14.901Z,28.53
2019-06-01T09:04:16.299Z,28.47
2019-06-01T09:05:24.370Z,28.39
2019-06-01T09:06:21.131Z,28.48
2019-06-01T09:07:22.514Z,28.51
2019-06-01T09:08:25.501Z,28.33
2019-06-01T09:09:27.202Z,28.33
2019-06-01T09:10:29.238Z,28.32
2019-06-01T09:11:31.122Z,28.31
2019-06-01T09:12:33.300Z,28.21
2019-06-01T09:13:35.485Z,28.23
2019-06-01T09:14:37.065Z,28.29
2019-06-01T09:15:38.454Z,28.37
2019-06-01T09:16:39.886Z,28.37
2019-06-01T09:17:41.371Z,28.35
2019-06-01T09:18:42.776Z,28.46
2019-06-01T09:19:44.270Z,28.44
2019-06-01T09:20:45.677Z,28.49
2019-06-01T09:21:47.277Z,28.32
2019-06-01T09:22:48.760Z,28.45
2019-06-01T09:23:50.152Z,28.45
2019-06-01T09:24:53.484Z,28.53
2019-06-01T09:25:54.936Z,28.64
2019-06-01T09:26:56.526Z,28.68
2019-06-01T09:27:58.575Z,28.77
2019-06-01T09:28:59.972Z,28.76
2019-06-01T09:30:01.832Z,28.73
2019-06-01T09:31:05.225Z,28.82
2019-06-01T09:32:10.889Z,28.81
2019-06-01T09:33:10.109Z,28.91
2019-06-01T09:34:11.518Z,28.96
2019-06-01T09:35:13.000Z,28.97
2019-06-01T09:36:14.393Z,29.00
2019-06-01T09:37:15.957Z,29.01
2019-06-01T09:38:18.460Z,29.07
2019-06-01T09:39:19.953Z,29.07
2019-06-01T09:40:21.347Z,29.13
2019-06-01T09:41:22.853Z,29.19
2019-06-01T09:42:24.490Z,29.27
2019-06-01T09:43:26.532Z,29.32
2019-06-01T09:44:28.825Z,29.40
2019-06-01T09:45:30.316Z,29.39
2019-06-01T09:46:32.600Z,29.45
2019-06-01T09:47:35.657Z,29.45
2019-06-01T09:48:37.853Z,29.40
2019-06-01T09:49:39.380Z,29.42
2019-06-01T09:50:41.157Z,29.52
2019-06-01T09:51:42.665Z,29.56
2019-06-01T09:52:44.230Z,29.60
2019-06-01T09:53:45.630Z,29.55
2019-06-01T09:54:47.131Z,29.59
2019-06-01T09:55:48.519Z,29.65
2019-06-01T09:56:49.914Z,29.68
2019-06-01T09:57:51.535Z,29.67
2019-06-01T09:58:53.322Z,29.68
2019-06-01T09:59:54.734Z,29.66
2019-06-01T10:00:56.114Z,29.66
2019-06-01T10:01:57.509Z,29.74
2019-06-01T10:02:59.050Z,29.81
2019-06-01T10:04:00.436Z,29.85
2019-06-01T10:05:01.909Z,29.87
2019-06-01T10:06:03.681Z,29.86
2019-06-01T10:07:05.078Z,29.89
2019-06-01T10:08:06.502Z,29.80
2019-06-01T10:09:08.184Z,29.75
2019-06-01T10:10:10.106Z,29.73
2019-06-01T10:11:11.464Z,29.69
2019-06-01T10:12:12.973Z,29.66
2019-06-01T10:13:14.488Z,29.63
2019-06-01T10:14:15.946Z,29.63
2019-06-01T10:15:17.432Z,29.70
2019-06-01T10:16:18.833Z,29.71
2019-06-01T10:17:20.221Z,29.73
2019-06-01T10:18:21.784Z,29.73
2019-06-01T10:19:23.168Z,29.72
2019-06-01T10:20:24.570Z,29.74
2019-06-01T10:21:25.946Z,29.76
2019-06-01T10:22:27.444Z,29.76
2019-06-01T10:23:30.136Z,29.78
2019-06-01T10:24:32.951Z,29.83
2019-06-01T10:25:34.593Z,29.86
2019-06-01T10:26:36.278Z,29.89
2019-06-01T10:27:38.903Z,29.98
2019-06-01T10:28:40.290Z,30.02
2019-06-01T10:29:42.917Z,30.02
2019-06-01T10:30:44.476Z,30.05
2019-06-01T10:31:45.897Z,30.07
2019-06-01T10:32:47.345Z,30.03
2019-06-01T10:33:51.401Z,30.02
2019-06-01T10:34:52.415Z,29.98
2019-06-01T10:35:53.919Z,29.95
2019-06-01T10:36:55.400Z,30.01
2019-06-01T10:37:56.813Z,30.07
2019-06-01T10:38:58.330Z,30.12
2019-06-01T10:39:59.741Z,30.08
2019-06-01T10:41:01.163Z,30.13
2019-06-01T10:42:03.584Z,30.15
2019-06-01T10:43:04.989Z,30.14
2019-06-01T10:44:06.510Z,30.11
2019-06-01T10:45:08.188Z,30.16
2019-06-01T10:46:09.598Z,30.19
2019-06-01T10:47:11.014Z,30.27
2019-06-01T10:48:12.425Z,30.27
2019-06-01T10:49:13.933Z,30.27
2019-06-01T10:50:17.607Z,30.25
2019-06-01T10:51:18.781Z,30.27
2019-06-01T10:52:20.186Z,30.35
2019-06-01T10:53:21.598Z,30.36
2019-06-01T10:54:23.274Z,30.33
2019-06-01T10:55:25.817Z,30.33
2019-06-01T10:56:27.352Z,30.34
2019-06-01T10:57:28.733Z,30.33
2019-06-01T10:58:30.196Z,30.32
2019-06-01T10:59:32.213Z,30.36
2019-06-01T11:00:39.740Z,30.39
2019-06-01T11:01:37.880Z,30.35
2019-06-01T11:02:40.890Z,30.31
2019-06-01T11:03:42.886Z,30.32
2019-06-01T11:04:44.425Z,30.35
2019-06-01T11:05:45.801Z,30.38
2019-06-01T11:06:48.807Z,30.33
2019-06-01T11:07:50.485Z,30.40
2019-06-01T11:08:51.893Z,30.42
2019-06-01T11:09:53.496Z,30.45
2019-06-01T11:10:54.914Z,30.47
2019-06-01T11:11:56.329Z,30.50
2019-06-01T11:12:57.740Z,30.49
2019-06-01T11:13:59.149Z,30.45
2019-06-01T11:15:00.682Z,30.45
2019-06-01T11:16:02.339Z,30.45
2019-06-01T11:17:03.831Z,30.52
2019-06-01T11:18:05.320Z,30.51
2019-06-01T11:19:06.713Z,30.55
2019-06-01T11:20:09.341Z,30.46
2019-06-01T11:21:10.824Z,30.35
2019-06-01T11:22:12.222Z,30.39
2019-06-01T11:23:13.601Z,30.44
2019-06-01T11:24:15.006Z,30.51
2019-06-01T11:25:16.642Z,30.63
2019-06-01T11:26:19.038Z,30.60
2019-06-01T11:27:20.538Z,30.66
2019-06-01T11:28:21.957Z,30.81
2019-06-01T11:29:23.332Z,30.94
2019-06-01T11:30:24.970Z,30.99
2019-06-01T11:31:27.486Z,30.99
2019-06-01T11:32:28.890Z,31.01
2019-06-01T11:33:30.298Z,31.10
2019-06-01T11:34:31.734Z,31.15
2019-06-01T11:35:33.152Z,31.12
2019-06-01T11:36:34.536Z,31.11
2019-06-01T11:37:36.188Z,31.10
2019-06-01T11:38:38.506Z,31.13
2019-06-01T11:39:40.576Z,31.09
2019-06-01T11:40:42.821Z,31.16
2019-06-01T11:41:44.812Z,31.23
2019-06-01T11:42:46.396Z,31.20
2019-06-01T11:43:47.806Z,31.17
2019-06-01T11:44:49.327Z,31.48
2019-06-01T11:45:57.108Z,31.29
2019-06-01T11:46:58.567Z,31.23
2019-06-01T11:47:59.972Z,31.17
2019-06-01T11:49:01.368Z,31.21
2019-06-01T11:50:04.553Z,31.29
2019-06-01T11:51:06.057Z,31.31
2019-06-01T11:52:07.620Z,31.24
2019-06-01T11:53:09.043Z,31.19
2019-06-01T11:54:10.437Z,31.18
2019-06-01T11:55:12.228Z,31.20
2019-06-01T11:56:13.611Z,31.18
2019-06-01T11:57:15.048Z,31.13
2019-06-01T11:58:16.432Z,31.09
2019-06-01T11:59:21.162Z,31.07
2019-06-01T12:00:21.210Z,31.06
2019-06-01T12:01:22.705Z,31.08
2019-06-01T12:02:24.319Z,31.13
2019-06-01T12:03:25.705Z,31.14
2019-06-01T12:04:27.099Z,31.10
2019-06-01T12:05:28.665Z,31.07
2019-06-01T12:06:30.058Z,31.08
2019-06-01T12:07:31.983Z,31.03
2019-06-01T12:08:34.210Z,31.06
2019-06-01T12:09:35.872Z,31.10
2019-06-01T12:10:38.832Z,31.10
2019-06-01T12:11:40.407Z,31.06
2019-06-01T12:12:42.352Z,31.08
2019-06-01T12:13:44.411Z,31.11
2019-06-01T12:14:46.762Z,31.13
2019-06-01T12:15:48.315Z,31.12
2019-06-01T12:16:49.689Z,31.13
2019-06-01T12:17:51.258Z,31.23
2019-06-01T12:18:52.745Z,31.25
2019-06-01T12:19:54.125Z,31.24
2019-06-01T12:20:55.520Z,31.26
2019-06-01T12:21:56.903Z,31.30
2019-06-01T12:22:58.431Z,31.32
2019-06-01T12:23:59.829Z,31.30
2019-06-01T12:25:01.212Z,31.27
2019-06-01T12:26:02.702Z,31.24
2019-06-01T12:27:04.085Z,31.26
2019-06-01T12:28:05.728Z,31.23
2019-06-01T12:29:07.116Z,31.20
2019-06-01T12:30:08.914Z,31.19
2019-06-01T12:31:10.317Z,31.18
2019-06-01T12:32:11.733Z,31.25
2019-06-01T12:33:13.262Z,31.24
2019-06-01T12:34:14.641Z,31.27
2019-06-01T12:35:16.044Z,31.30
2019-06-01T12:36:17.521Z,31.28
2019-06-01T12:37:36.140Z,31.29
2019-06-01T12:38:24.874Z,31.31
2019-06-01T12:39:26.298Z,31.40
2019-06-01T12:40:27.896Z,31.46
2019-06-01T12:41:29.438Z,31.51
2019-06-01T12:42:31.065Z,31.49
2019-06-01T12:43:32.770Z,31.50
2019-06-01T12:44:34.203Z,31.47
2019-06-01T12:45:35.590Z,31.42
2019-06-01T12:46:38.081Z,31.42
2019-06-01T12:47:39.904Z,31.44
2019-06-01T12:48:41.847Z,31.46
2019-06-01T12:49:44.069Z,31.44
2019-06-01T12:50:49.063Z,31.42
2019-06-01T12:51:49.118Z,31.42
2019-06-01T12:52:50.576Z,31.41
2019-06-01T12:53:52.783Z,31.42
2019-06-01T12:54:54.206Z,31.45
2019-06-01T12:55:55.618Z,31.49
2019-06-01T12:56:57.032Z,31.50
2019-06-01T12:57:58.450Z,31.51
2019-06-01T12:58:59.965Z,31.50
2019-06-01T13:00:01.337Z,31.50
2019-06-01T13:01:03.024Z,31.47
2019-06-01T13:02:04.625Z,31.42
2019-06-01T13:03:07.994Z,31.43
2019-06-01T13:04:09.733Z,31.43
2019-06-01T13:05:11.237Z,31.39
2019-06-01T13:06:12.653Z,31.39
2019-06-01T13:07:14.171Z,31.45
2019-06-01T13:08:15.585Z,31.47
2019-06-01T13:09:17.292Z,31.47
2019-06-01T13:10:18.786Z,31.43
2019-06-01T13:11:20.365Z,31.43
2019-06-01T13:12:21.850Z,31.41
2019-06-01T13:13:23.257Z,31.45
2019-06-01T13:14:24.702Z,31.50
2019-06-01T13:15:26.229Z,31.52
2019-06-01T13:16:27.645Z,31.49